Time;durP1;ratioP1;P1;durP2;ratioP2;P2;SDS_P1;SDS_P2;PMS_P1;PMS_P2;Temp;Humidity;BMP_temperature;BMP_pressure;BME280_temperature;BME280_humidity;BME280_pressure;Samples;Min_cycle;Max_cycle;Signal;HPM_P1;HPM_P2
2022/10/31 00:00:18;;;;;;;8.43;6.30;;;14.10;99.90;;;;;;5074118;28;20455;-65
2022/10/31 00:02:45;;;;;;;13.13;7.97;;;;;;;;;;5073521;28;21005;-65
2022/10/31 00:05:12;;;;;;;9.73;6.80;;;14.00;99.90;;;;;;5074148;28;20433;-64
2022/10/31 00:07:39;;;;;;;9.50;6.47;;;14.10;99.90;;;;;;5073683;28;20456;-64
2022/10/31 00:10:08;;;;;;;9.37;6.83;;;14.10;99.90;;;;;;5073559;28;20449;-64
2022/10/31 00:12:36;;;;;;;8.87;6.50;;;14.10;99.90;;;;;;5073614;28;20468;-64
2022/10/31 00:15:04;;;;;;;8.97;6.90;;;14.00;99.90;;;;;;5073519;28;20449;-64
2022/10/31 00:17:31;;;;;;;9.13;6.27;;;14.00;99.90;;;;;;5073741;28;20825;-64
2022/10/31 00:19:58;;;;;;;8.50;6.37;;;13.90;99.90;;;;;;5073570;28;20444;-64
2022/10/31 00:22:26;;;;;;;7.50;6.60;;;14.00;99.90;;;;;;5073323;28;20495;-64
2022/10/31 00:24:53;;;;;;;7.67;6.77;;;14.00;99.90;;;;;;5073626;28;20459;-64
2022/10/31 00:27:20;;;;;;;10.60;6.90;;;;;;;;;;5073816;28;20447;-65
2022/10/31 00:29:49;;;;;;;7.47;6.70;;;13.80;99.90;;;;;;5073023;28;20444;-64
2022/10/31 00:32:16;;;;;;;12.67;6.10;;;13.80;99.90;;;;;;5073471;28;20550;-65
2022/10/31 00:34:43;;;;;;;12.83;6.77;;;13.80;99.90;;;;;;5073621;28;20451;-65
2022/10/31 00:37:10;;;;;;;10.00;6.50;;;13.70;99.90;;;;;;5073544;28;20444;-64
2022/10/31 00:39:37;;;;;;;9.03;6.60;;;13.60;99.90;;;;;;5073502;28;20447;-64
2022/10/31 00:42:04;;;;;;;6.80;6.10;;;13.80;99.90;;;;;;5073660;28;20463;-64
2022/10/31 00:44:31;;;;;;;13.83;7.30;;;13.70;99.90;;;;;;5073485;28;20456;-65
2022/10/31 00:47:00;;;;;;;12.37;6.73;;;13.70;99.90;;;;;;5073106;28;20452;-65
2022/10/31 00:49:27;;;;;;;9.13;6.77;;;13.70;99.90;;;;;;5073201;28;20539;-65
2022/10/31 00:51:54;;;;;;;11.80;7.90;;;13.70;99.90;;;;;;5073037;28;20444;-65
2022/10/31 00:54:21;;;;;;;7.30;6.60;;;13.70;99.90;;;;;;5073068;28;20445;-64
2022/10/31 00:56:48;;;;;;;9.33;6.40;;;13.70;99.90;;;;;;5073178;28;20445;-64
2022/10/31 00:59:15;;;;;;;9.27;6.17;;;13.70;99.90;;;;;;5073122;28;20444;-64
2022/10/31 01:01:42;;;;;;;11.50;6.50;;;13.70;99.90;;;;;;5072921;28;20921;-64
2022/10/31 01:04:11;;;;;;;13.40;6.80;;;13.70;99.90;;;;;;5072721;28;20830;-64
2022/10/31 01:06:38;;;;;;;7.57;6.60;;;13.60;99.90;;;;;;5073146;28;20954;-64
2022/10/31 01:09:05;;;;;;;8.70;6.40;;;13.60;99.90;;;;;;5073300;28;20452;-64
2022/10/31 01:11:32;;;;;;;8.30;6.47;;;13.60;99.90;;;;;;5073209;28;20539;-64
2022/10/31 01:13:59;;;;;;;8.27;6.30;;;13.60;99.90;;;;;;5073062;28;20460;-64
2022/10/31 01:16:29;;;;;;;9.97;6.90;;;13.50;99.90;;;;;;5073134;28;20470;-64
2022/10/31 01:18:56;;;;;;;10.97;6.77;;;13.50;99.90;;;;;;5073108;28;20455;-64
2022/10/31 01:21:27;;;;;;;7.73;5.80;;;13.40;99.90;;;;;;5073312;28;20448;-64
2022/10/31 01:23:56;;;;;;;15.50;6.30;;;13.50;99.90;;;;;;5072694;28;20992;-64
2022/10/31 01:26:24;;;;;;;7.63;5.87;;;13.50;99.90;;;;;;5073054;28;20498;-64
2022/10/31 01:28:54;;;;;;;10.27;6.27;;;13.50;99.90;;;;;;5073134;28;20808;-65
2022/10/31 01:31:24;;;;;;;8.07;6.80;;;13.60;99.90;;;;;;5072732;28;20451;-65
2022/10/31 01:33:51;;;;;;;6.57;5.90;;;13.50;99.90;;;;;;5072673;28;20967;-64
2022/10/31 01:36:20;;;;;;;7.30;6.33;;;13.50;99.90;;;;;;5072857;28;20470;-64
2022/10/31 01:38:49;;;;;;;11.47;6.83;;;13.50;99.90;;;;;;5072688;28;20444;-65
2022/10/31 01:41:22;;;;;;;12.60;6.77;;;13.60;99.90;;;;;;5076003;28;20448;-64
2022/10/31 01:43:52;;;;;;;9.13;7.20;;;13.70;99.90;;;;;;5076652;28;20486;-64
2022/10/31 01:46:23;;;;;;;9.03;6.23;;;13.60;99.90;;;;;;5076454;28;20463;-64
2022/10/31 01:48:50;;;;;;;9.50;6.60;;;13.40;99.90;;;;;;5076515;28;20434;-64
2022/10/31 01:51:21;;;;;;;8.30;6.70;;;13.30;99.90;;;;;;5076214;28;20452;-64
2022/10/31 01:53:52;;;;;;;8.87;6.00;;;13.30;99.90;;;;;;5076761;28;20460;-64
2022/10/31 01:56:20;;;;;;;15.20;7.67;;;13.40;99.90;;;;;;5076447;28;20405;-64
2022/10/31 01:58:47;;;;;;;7.03;6.27;;;13.50;99.90;;;;;;5076441;28;20448;-64
2022/10/31 02:01:16;;;;;;;7.57;6.20;;;13.50;99.90;;;;;;5076401;28;20474;-64
2022/10/31 02:03:44;;;;;;;9.77;6.90;;;13.50;99.90;;;;;;5076077;28;20491;-64
2022/10/31 02:06:21;;;;;;;7.17;6.30;;;13.50;99.90;;;;;;5076142;28;20476;-64
2022/10/31 02:08:51;;;;;;;16.60;7.30;;;13.40;99.90;;;;;;5076039;28;20936;-64
2022/10/31 02:11:18;;;;;;;11.97;6.30;;;13.40;99.90;;;;;;5076276;28;20459;-64
2022/10/31 02:13:45;;;;;;;8.83;6.77;;;;;;;;;;5076244;28;20467;-64
2022/10/31 02:16:13;;;;;;;10.80;6.93;;;13.20;99.90;;;;;;5075930;28;20436;-64
2022/10/31 02:18:40;;;;;;;8.20;5.73;;;13.20;99.90;;;;;;5076132;28;20452;-64
2022/10/31 02:21:16;;;;;;;14.87;6.93;;;13.20;99.90;;;;;;5075921;28;20531;-64
2022/10/31 02:24:33;;;;;;;8.10;7.30;;;13.10;99.90;;;;;;5076017;28;20490;-64
2022/10/31 02:27:11;;;;;;;7.83;6.50;;;13.30;99.90;;;;;;5075808;28;20440;-64
2022/10/31 02:30:18;;;;;;;7.37;5.67;;;13.30;99.90;;;;;;5075967;28;20429;-64
2022/10/31 02:33:05;;;;;;;8.17;6.33;;;13.30;99.90;;;;;;5075843;28;20831;-65
2022/10/31 02:35:48;;;;;;;12.50;7.20;;;13.30;99.90;;;;;;5075973;28;20433;-64
2022/10/31 02:38:27;;;;;;;11.13;7.00;;;13.30;99.90;;;;;;5075598;28;20919;-64
2022/10/31 02:41:02;;;;;;;8.23;5.93;;;13.30;99.90;;;;;;5075726;28;20517;-64
2022/10/31 02:43:36;;;;;;;8.57;6.50;;;13.20;99.90;;;;;;5075593;28;20491;-64
2022/10/31 02:46:12;;;;;;;10.83;6.70;;;13.20;99.90;;;;;;5075627;28;20443;-64
2022/10/31 02:48:42;;;;;;;7.80;6.07;;;13.20;99.90;;;;;;5075833;28;20508;-64
2022/10/31 02:51:11;;;;;;;7.30;6.43;;;13.00;99.90;;;;;;5075039;28;20472;-65
2022/10/31 02:53:39;;;;;;;10.37;6.40;;;13.00;99.90;;;;;;5074910;28;20460;-64
2022/10/31 02:56:12;;;;;;;12.60;6.37;;;13.20;99.90;;;;;;5075154;28;20540;-64
2022/10/31 02:58:44;;;;;;;10.90;7.17;;;13.10;99.90;;;;;;5075512;28;20438;-64
2022/10/31 03:01:38;;;;;;;13.30;6.57;;;13.10;99.90;;;;;;5075518;28;20429;-64
2022/10/31 03:04:50;;;;;;;12.50;6.43;;;13.20;99.90;;;;;;5074830;28;20579;-64
2022/10/31 03:07:26;;;;;;;10.37;7.07;;;13.20;99.90;;;;;;5018360;28;20439;-64
2022/10/31 03:10:04;;;;;;;8.30;6.20;;;13.20;99.90;;;;;;5074926;28;20428;-64
2022/10/31 03:12:39;;;;;;;10.10;6.20;;;13.10;99.90;;;;;;5075151;28;20551;-64
2022/10/31 03:15:14;;;;;;;9.57;6.10;;;13.10;99.90;;;;;;5074971;28;20431;-64
2022/10/31 03:17:56;;;;;;;8.43;7.50;;;13.10;99.90;;;;;;5075055;28;20830;-64
2022/10/31 03:20:29;;;;;;;11.40;6.50;;;13.00;99.90;;;;;;5074685;28;20892;-64
2022/10/31 03:22:59;;;;;;;8.90;6.17;;;13.00;99.90;;;;;;5074480;28;21004;-64
2022/10/31 03:25:28;;;;;;;10.23;6.73;;;13.10;99.90;;;;;;5074890;28;20444;-64
2022/10/31 03:27:55;;;;;;;7.33;5.60;;;13.10;99.90;;;;;;5074877;28;20531;-64
2022/10/31 03:30:23;;;;;;;7.23;6.00;;;13.10;99.90;;;;;;5074476;28;20946;-64
2022/10/31 03:32:53;;;;;;;9.50;6.30;;;12.90;99.90;;;;;;5074596;28;20962;-64
2022/10/31 03:35:23;;;;;;;7.97;5.97;;;13.00;99.90;;;;;;5074795;28;20516;-64
2022/10/31 03:37:52;;;;;;;7.53;5.90;;;12.90;99.90;;;;;;5074753;28;20427;-64
2022/10/31 03:40:23;;;;;;;6.47;5.87;;;12.90;99.90;;;;;;5074518;28;20456;-64
2022/10/31 03:42:55;;;;;;;7.63;6.30;;;12.90;99.90;;;;;;5074175;28;20460;-64
2022/10/31 03:45:25;;;;;;;9.23;6.63;;;12.90;99.90;;;;;;5074272;28;20425;-64
2022/10/31 03:47:54;;;;;;;7.47;6.20;;;12.90;99.90;;;;;;5074247;28;20417;-64
2022/10/31 03:50:25;;;;;;;8.97;6.00;;;12.90;99.90;;;;;;5074027;28;20454;-64
2022/10/31 03:52:59;;;;;;;9.83;6.93;;;12.90;99.90;;;;;;5074274;28;20545;-64
2022/10/31 03:55:32;;;;;;;9.37;6.13;;;12.90;99.90;;;;;;5074083;28;20428;-64
2022/10/31 03:58:03;;;;;;;7.00;5.63;;;12.80;99.90;;;;;;5074244;28;20417;-63
2022/10/31 04:00:32;;;;;;;8.70;6.73;;;12.70;99.90;;;;;;5073895;28;20923;-64
2022/10/31 04:03:02;;;;;;;17.40;7.00;;;12.70;99.90;;;;;;5073427;28;20475;-64
2022/10/31 04:05:30;;;;;;;7.37;5.70;;;12.70;99.90;;;;;;5073634;28;20899;-64
2022/10/31 04:08:01;;;;;;;11.50;6.43;;;12.80;99.90;;;;;;5073849;28;20424;-64
2022/10/31 04:10:30;;;;;;;11.30;6.27;;;12.80;99.90;;;;;;5074038;28;20528;-64
2022/10/31 04:13:00;;;;;;;9.07;6.60;;;12.80;99.90;;;;;;5073607;28;20474;-64
2022/10/31 04:15:29;;;;;;;10.03;6.93;;;12.80;99.90;;;;;;5074051;28;20458;-64
2022/10/31 04:17:59;;;;;;;9.10;6.20;;;12.80;99.90;;;;;;5073506;28;21086;-64
2022/10/31 04:20:33;;;;;;;13.27;5.00;;;12.80;99.90;;;;;;5073788;28;20429;-63
2022/10/31 04:23:01;;;;;;;7.93;5.77;;;12.60;99.90;;;;;;5073635;28;20464;-63
2022/10/31 04:25:29;;;;;;;9.60;6.63;;;12.60;99.90;;;;;;5073730;28;20490;-64
2022/10/31 04:27:56;;;;;;;7.87;6.40;;;12.60;99.90;;;;;;5073502;28;20436;-63
2022/10/31 04:30:24;;;;;;;8.67;6.60;;;12.50;99.90;;;;;;5073861;28;20810;-64
2022/10/31 04:32:51;;;;;;;7.07;6.03;;;12.60;99.90;;;;;;5073543;28;20491;-64
2022/10/31 04:35:18;;;;;;;6.87;6.17;;;12.60;99.90;;;;;;5073667;28;20540;-64
2022/10/31 04:37:45;;;;;;;7.33;5.77;;;12.70;99.90;;;;;;5073300;28;20455;-64
2022/10/31 04:40:13;;;;;;;10.50;6.43;;;12.50;99.90;;;;;;5073629;28;20528;-63
2022/10/31 04:42:41;;;;;;;10.43;5.60;;;12.40;99.90;;;;;;5073213;28;20495;-63
2022/10/31 04:45:09;;;;;;;12.73;6.60;;;12.40;99.90;;;;;;5073379;28;20487;-63
2022/10/31 04:47:36;;;;;;;10.93;6.00;;;12.50;99.90;;;;;;5073620;28;20444;-64
2022/10/31 04:50:03;;;;;;;8.93;6.63;;;12.50;99.90;;;;;;5073462;28;20535;-64
2022/10/31 04:52:31;;;;;;;10.37;6.43;;;12.50;99.90;;;;;;5073362;28;20470;-62
2022/10/31 04:54:58;;;;;;;8.70;6.50;;;12.40;99.90;;;;;;5073529;28;20551;-63
2022/10/31 04:57:25;;;;;;;8.93;6.33;;;12.50;99.90;;;;;;5073348;28;20448;-63
2022/10/31 04:59:53;;;;;;;9.63;6.43;;;12.50;99.90;;;;;;5073037;28;20949;-63
2022/10/31 05:02:20;;;;;;;9.43;5.93;;;12.50;99.90;;;;;;5073218;28;20479;-64
2022/10/31 05:04:48;;;;;;;6.90;5.90;;;12.60;99.90;;;;;;5072722;28;20492;-63
2022/10/31 05:07:15;;;;;;;7.67;5.97;;;12.50;99.90;;;;;;5072889;28;20982;-63
2022/10/31 05:09:42;;;;;;;7.90;5.87;;;12.50;99.90;;;;;;5073037;28;20957;-63
2022/10/31 05:12:09;;;;;;;9.33;5.33;;;12.50;99.90;;;;;;5073128;28;20472;-63
2022/10/31 05:14:36;;;;;;;11.90;6.90;;;12.40;99.90;;;;;;5073674;28;20447;-64
2022/10/31 05:17:04;;;;;;;8.73;7.00;;;12.40;99.90;;;;;;5077473;28;20444;-64
2022/10/31 05:19:31;;;;;;;8.87;5.77;;;12.40;99.90;;;;;;5077244;28;20477;-63
2022/10/31 05:21:59;;;;;;;8.00;5.40;;;12.40;99.90;;;;;;5076894;28;20978;-63
2022/10/31 05:24:26;;;;;;;10.40;6.17;;;12.40;99.90;;;;;;5077104;28;20480;-63
2022/10/31 05:26:53;;;;;;;7.57;6.87;;;12.40;99.90;;;;;;5076912;28;20443;-63
2022/10/31 05:29:20;;;;;;;10.20;6.57;;;12.40;99.90;;;;;;5077117;28;20866;-63
2022/10/31 05:31:47;;;;;;;14.07;6.20;;;12.40;99.90;;;;;;5077095;28;20452;-63
2022/10/31 05:34:15;;;;;;;10.53;6.20;;;12.30;99.90;;;;;;5076960;28;20440;-63
2022/10/31 05:36:43;;;;;;;12.30;5.60;;;12.30;99.90;;;;;;5076882;28;20444;-63
2022/10/31 05:39:14;;;;;;;9.40;5.70;;;12.30;99.90;;;;;;5077029;28;20477;-63
2022/10/31 05:41:41;;;;;;;9.60;6.47;;;12.20;99.90;;;;;;5076873;28;20452;-63
2022/10/31 05:44:08;;;;;;;8.10;6.83;;;12.00;99.90;;;;;;5076298;28;20917;-63
2022/10/31 05:46:35;;;;;;;10.13;6.63;;;12.10;99.90;;;;;;5076649;28;20452;-63
2022/10/31 05:49:03;;;;;;;6.70;6.00;;;12.20;99.90;;;;;;5076424;28;20444;-63
2022/10/31 05:51:31;;;;;;;7.47;6.47;;;12.20;99.90;;;;;;5076322;28;20540;-63
2022/10/31 05:53:58;;;;;;;9.47;6.20;;;12.10;99.90;;;;;;5076461;28;20499;-63
2022/10/31 05:56:25;;;;;;;8.93;7.10;;;12.00;99.90;;;;;;5076598;28;20539;-63
2022/10/31 05:58:52;;;;;;;9.50;5.77;;;12.00;99.90;;;;;;5076458;28;20785;-63
2022/10/31 06:01:20;;;;;;;7.10;5.93;;;12.10;99.90;;;;;;5076430;28;20805;-63
2022/10/31 06:03:47;;;;;;;8.30;6.03;;;12.00;99.90;;;;;;5075777;28;21010;-63
2022/10/31 06:06:14;;;;;;;8.83;6.63;;;12.10;99.90;;;;;;5075951;28;20482;-63
2022/10/31 06:08:42;;;;;;;6.43;5.67;;;12.20;99.90;;;;;;5076320;28;20534;-62
2022/10/31 06:11:10;;;;;;;6.47;5.73;;;12.20;99.90;;;;;;5076064;28;20433;-63
2022/10/31 06:13:37;;;;;;;8.20;6.40;;;12.20;99.90;;;;;;5076087;28;20464;-63
2022/10/31 06:16:05;;;;;;;7.60;5.37;;;12.20;99.90;;;;;;5076159;28;20863;-63
2022/10/31 06:18:32;;;;;;;11.73;6.80;;;12.20;99.90;;;;;;5076136;28;20802;-63
2022/10/31 06:20:59;;;;;;;9.73;6.40;;;12.20;99.90;;;;;;5076018;28;20448;-63
2022/10/31 06:23:26;;;;;;;7.00;5.43;;;12.20;99.90;;;;;;5075872;28;20563;-63
2022/10/31 06:25:55;;;;;;;6.90;6.20;;;12.10;99.90;;;;;;5075599;28;20491;-63
2022/10/31 06:28:22;;;;;;;7.43;5.60;;;12.00;99.90;;;;;;5075592;28;20476;-63
2022/10/31 06:30:49;;;;;;;10.53;5.67;;;12.10;99.90;;;;;;5075580;28;20535;-63
2022/10/31 06:33:16;;;;;;;8.60;5.43;;;12.20;99.90;;;;;;5075751;28;20486;-63
2022/10/31 06:35:46;;;;;;;7.20;6.23;;;12.10;99.90;;;;;;5076022;28;20432;-63
2022/10/31 06:38:14;;;;;;;8.23;6.70;;;12.10;99.90;;;;;;5075787;28;20429;-63
2022/10/31 06:40:42;;;;;;;10.43;6.70;;;12.10;99.90;;;;;;5075556;28;20452;-63
2022/10/31 06:43:11;;;;;;;7.77;5.33;;;12.20;99.90;;;;;;5075572;28;20507;-63
2022/10/31 06:45:38;;;;;;;10.10;7.20;;;12.20;99.90;;;;;;5075426;28;20484;-63
2022/10/31 06:48:06;;;;;;;14.17;6.73;;;12.40;99.90;;;;;;5075536;28;20571;-64
2022/10/31 06:50:33;;;;;;;9.93;6.10;;;12.40;99.90;;;;;;5075695;28;20452;-63
2022/10/31 06:53:00;;;;;;;8.80;6.70;;;12.50;99.90;;;;;;5075018;28;20474;-63
2022/10/31 06:55:27;;;;;;;8.33;5.73;;;12.50;99.90;;;;;;5075079;28;20447;-63
2022/10/31 06:57:56;;;;;;;7.43;6.30;;;12.50;99.90;;;;;;5075467;28;20445;-63
2022/10/31 07:00:25;;;;;;;10.27;6.00;;;12.50;99.90;;;;;;5074890;28;20535;-63
2022/10/31 07:02:56;;;;;;;7.77;6.53;;;12.40;99.90;;;;;;5074994;28;20570;-64
2022/10/31 07:05:24;;;;;;;8.43;6.33;;;12.50;99.90;;;;;;5075124;28;20479;-63
2022/10/31 07:07:53;;;;;;;8.93;6.27;;;12.50;99.90;;;;;;5075118;28;20547;-63
2022/10/31 07:10:20;;;;;;;9.20;5.97;;;12.60;99.90;;;;;;5075129;28;20467;-63
2022/10/31 07:12:48;;;;;;;8.83;6.53;;;12.60;99.90;;;;;;5074612;28;20858;-63
2022/10/31 07:15:15;;;;;;;11.77;6.47;;;12.60;99.90;;;;;;5074987;28;20451;-63
2022/10/31 07:17:43;;;;;;;14.07;7.77;;;12.70;99.90;;;;;;5074685;28;20931;-63
2022/10/31 07:20:11;;;;;;;8.83;6.37;;;12.70;99.90;;;;;;5074532;28;20444;-64
2022/10/31 07:22:39;;;;;;;8.50;7.23;;;;;;;;;;5074566;28;20495;-64
2022/10/31 07:25:06;;;;;;;9.03;6.67;;;12.80;99.90;;;;;;5074375;28;20503;-63
2022/10/31 07:27:37;;;;;;;6.80;6.10;;;13.00;99.90;;;;;;5074415;28;20455;-63
2022/10/31 07:30:05;;;;;;;7.67;6.87;;;13.10;99.90;;;;;;5074705;28;20446;-64
2022/10/31 07:32:40;;;;;;;8.33;6.43;;;13.10;99.90;;;;;;5074521;28;20475;-63
2022/10/31 07:35:09;;;;;;;8.77;7.40;;;13.00;99.90;;;;;;5074600;28;20436;-63
2022/10/31 07:37:37;;;;;;;11.70;7.03;;;13.10;99.90;;;;;;5074437;28;20451;-63
2022/10/31 07:40:04;;;;;;;14.30;7.83;;;13.30;99.90;;;;;;5074409;28;20480;-63
2022/10/31 07:42:36;;;;;;;8.90;6.63;;;;;;;;;;5073962;28;20471;-64
2022/10/31 07:45:04;;;;;;;10.63;7.07;;;13.50;99.90;;;;;;5074016;28;20502;-64
2022/10/31 07:47:38;;;;;;;11.70;6.73;;;13.50;99.90;;;;;;5074426;28;20456;-64
2022/10/31 07:50:06;;;;;;;13.03;7.27;;;13.40;99.90;;;;;;5074345;28;20428;-64
2022/10/31 07:52:34;;;;;;;11.40;7.70;;;13.50;99.90;;;;;;5074041;28;20474;-64
2022/10/31 07:55:02;;;;;;;7.80;7.07;;;13.50;99.90;;;;;;5073804;28;20536;-64
2022/10/31 07:57:29;;;;;;;7.90;6.90;;;13.70;99.90;;;;;;5073986;28;20535;-64
2022/10/31 07:59:56;;;;;;;11.40;6.50;;;13.70;99.90;;;;;;5073736;28;21098;-63
2022/10/31 08:02:23;;;;;;;8.43;6.47;;;13.60;99.90;;;;;;5074163;28;20476;-64
2022/10/31 08:04:50;;;;;;;12.40;8.40;;;13.80;99.90;;;;;;5073584;28;20484;-64
2022/10/31 08:07:18;;;;;;;11.90;7.30;;;13.90;99.90;;;;;;5073590;28;20957;-63
2022/10/31 08:09:46;;;;;;;8.90;7.50;;;14.00;99.90;;;;;;5073961;28;20799;-64
2022/10/31 08:12:13;;;;;;;10.40;7.30;;;14.00;99.90;;;;;;5073491;28;20465;-63
2022/10/31 08:14:40;;;;;;;9.10;7.30;;;14.10;99.90;;;;;;5073442;28;20460;-64
2022/10/31 08:17:08;;;;;;;12.40;7.70;;;14.20;99.90;;;;;;5073399;28;20448;-63
2022/10/31 08:19:35;;;;;;;9.77;7.80;;;14.10;99.90;;;;;;5073313;28;20499;-64
2022/10/31 08:22:02;;;;;;;10.87;7.17;;;14.10;99.90;;;;;;5073632;28;20803;-61
2022/10/31 08:24:29;;;;;;;8.10;6.53;;;14.20;99.90;;;;;;5073441;28;20451;-64
2022/10/31 08:26:57;;;;;;;9.27;7.20;;;14.30;99.90;;;;;;5073143;28;20447;-63
2022/10/31 08:29:25;;;;;;;8.03;6.70;;;14.20;99.90;;;;;;5073233;28;20448;-62
2022/10/31 08:31:52;;;;;;;9.30;7.70;;;14.30;99.90;;;;;;5073236;28;20474;-59
2022/10/31 08:34:19;;;;;;;11.37;8.20;;;14.30;99.90;;;;;;5072930;28;20483;-59
2022/10/31 08:36:46;;;;;;;9.80;7.23;;;14.30;99.90;;;;;;5073075;28;20444;-64
2022/10/31 08:39:13;;;;;;;8.70;6.70;;;14.30;99.90;;;;;;5073264;28;20462;-68
2022/10/31 08:41:40;;;;;;;13.53;7.77;;;14.40;99.90;;;;;;5072917;28;20868;-50
2022/10/31 08:44:09;;;;;;;11.57;7.50;;;14.30;99.90;;;;;;5073105;28;20478;-63
2022/10/31 08:46:36;;;;;;;10.50;8.33;;;14.30;99.90;;;;;;5072939;28;20488;-62
2022/10/31 08:49:03;;;;;;;9.53;7.00;;;14.30;99.90;;;;;;5072911;28;20444;-62
2022/10/31 08:51:30;;;;;;;12.10;7.87;;;14.30;99.90;;;;;;5072689;28;20535;-62
2022/10/31 08:53:57;;;;;;;13.30;7.97;;;14.40;99.90;;;;;;5071562;28;20469;-62
2022/10/31 08:56:24;;;;;;;12.63;9.83;;;14.40;99.90;;;;;;5072964;28;20626;-62
2022/10/31 08:58:54;;;;;;;11.60;8.03;;;14.50;99.90;;;;;;5072699;28;20448;-63
2022/10/31 09:01:23;;;;;;;15.97;8.43;;;14.50;99.90;;;;;;5072889;28;20447;-62
2022/10/31 09:03:50;;;;;;;7.73;7.03;;;14.40;99.90;;;;;;5072115;28;20990;-62
2022/10/31 09:06:17;;;;;;;9.37;8.43;;;14.70;99.90;;;;;;5072826;28;20834;-62
2022/10/31 09:08:44;;;;;;;10.50;7.40;;;14.60;99.90;;;;;;5072339;28;20457;-62
2022/10/31 09:11:11;;;;;;;8.63;7.73;;;14.90;99.90;;;;;;5072965;28;20445;-62
2022/10/31 09:13:38;;;;;;;10.17;6.90;;;15.00;99.90;;;;;;5072706;28;20500;-63
2022/10/31 09:16:06;;;;;;;12.10;8.20;;;14.80;99.90;;;;;;5073052;28;20797;-64
2022/10/31 09:18:35;;;;;;;10.37;7.90;;;14.80;99.90;;;;;;5072801;28;20448;-64
2022/10/31 09:21:02;;;;;;;11.53;7.67;;;;;;;;;;5073102;28;20457;-63
2022/10/31 09:23:30;;;;;;;13.50;7.23;;;15.20;99.90;;;;;;5072342;28;20470;-63
2022/10/31 09:25:59;;;;;;;8.90;8.00;;;15.20;99.90;;;;;;5072353;28;20476;-63
2022/10/31 09:28:27;;;;;;;10.90;6.67;;;15.20;99.90;;;;;;5072750;28;20479;-64
2022/10/31 09:30:55;;;;;;;9.67;8.67;;;15.40;99.90;;;;;;5072575;28;20452;-64
2022/10/31 09:33:22;;;;;;;12.27;7.73;;;15.40;99.90;;;;;;5072860;28;20886;-64
2022/10/31 09:35:51;;;;;;;9.67;8.50;;;15.40;99.90;;;;;;5072734;28;20807;-64
2022/10/31 09:38:20;;;;;;;8.40;7.03;;;15.50;99.90;;;;;;5071975;28;20444;-64
2022/10/31 09:40:49;;;;;;;13.33;7.30;;;15.60;99.90;;;;;;5071931;28;20452;-63
2022/10/31 09:43:22;;;;;;;9.53;7.17;;;15.70;99.90;;;;;;5072123;28;20821;-63
2022/10/31 09:46:00;;;;;;;8.67;6.93;;;15.70;99.90;;;;;;5072479;28;20467;-64
2022/10/31 09:48:46;;;;;;;9.27;8.10;;;15.60;99.90;;;;;;5072289;28;20441;-63
2022/10/31 09:51:19;;;;;;;11.97;7.73;;;15.60;99.90;;;;;;5055308;28;20455;-64
2022/10/31 09:53:52;;;;;;;11.33;8.10;;;15.60;99.90;;;;;;5072564;28;20551;-63
2022/10/31 09:56:21;;;;;;;19.43;8.70;;;15.60;99.90;;;;;;5072395;28;20436;-62
2022/10/31 09:58:53;;;;;;;9.90;6.93;;;15.60;99.90;;;;;;5071961;28;20546;-63
2022/10/31 10:01:33;;;;;;;11.27;8.07;;;15.70;99.90;;;;;;5072189;28;20464;-63
2022/10/31 10:04:06;;;;;;;7.30;6.60;;;15.80;99.90;;;;;;5075906;28;20567;-64
2022/10/31 10:06:46;;;;;;;11.70;8.10;;;16.10;99.90;;;;;;5076001;28;20474;-64
2022/10/31 10:09:13;;;;;;;11.07;7.00;;;16.20;99.90;;;;;;5075672;28;20446;-64
2022/10/31 10:11:53;;;;;;;10.97;7.77;;;16.20;99.90;;;;;;5075307;28;20470;-63
2022/10/31 10:14:33;;;;;;;10.97;8.57;;;16.40;99.90;;;;;;5075251;28;20464;-63
2022/10/31 10:17:12;;;;;;;10.50;7.90;;;16.20;99.90;;;;;;5076094;28;20428;-64
2022/10/31 10:19:56;;;;;;;12.10;7.43;;;16.30;99.90;;;;;;5075461;28;20443;-64
2022/10/31 10:22:32;;;;;;;12.40;7.50;;;16.40;99.90;;;;;;5074988;28;20549;-64
2022/10/31 10:25:10;;;;;;;9.80;7.47;;;16.30;99.90;;;;;;5075117;28;20455;-64
2022/10/31 10:27:48;;;;;;;13.83;8.53;;;16.70;99.90;;;;;;5075181;28;20468;-63
2022/10/31 10:30:18;;;;;;;16.00;7.30;;;;;;;;;;5075502;28;20907;-63
2022/10/31 10:32:48;;;;;;;8.73;6.37;;;17.00;99.90;;;;;;5075056;28;20999;-64
2022/10/31 10:35:23;;;;;;;10.97;7.80;;;17.10;99.90;;;;;;5075386;28;20750;-64
2022/10/31 10:37:57;;;;;;;9.57;8.30;;;17.20;99.90;;;;;;5075760;28;20428;-64
2022/10/31 10:40:27;;;;;;;10.20;7.07;;;17.30;99.90;;;;;;5075414;28;20478;-64
2022/10/31 10:43:25;;;;;;;15.00;8.80;;;17.30;99.90;;;;;;5075455;28;20474;-64
2022/10/31 10:48:52;;;;;;;12.40;7.47;;;17.30;99.90;;;;;;5075285;28;20552;-63
2022/10/31 10:51:24;;;;;;;9.53;7.30;;;;;;;;;;5075156;28;20949;-63
2022/10/31 10:54:13;;;;;;;10.20;6.80;;;17.40;99.90;;;;;;5074907;28;20550;-64
2022/10/31 10:57:00;;;;;;;14.87;8.53;;;17.40;99.90;;;;;;5075329;28;20432;-64
2022/10/31 10:59:29;;;;;;;13.80;7.87;;;17.50;99.90;;;;;;5074957;28;20947;-63
2022/10/31 11:01:56;;;;;;;9.07;7.57;;;17.60;99.90;;;;;;5075191;28;20517;-64
2022/10/31 11:04:31;;;;;;;7.80;6.73;;;17.50;99.90;;;;;;5074566;28;20475;-64
2022/10/31 11:07:03;;;;;;;11.10;7.43;;;17.50;99.90;;;;;;5074542;28;20475;-63
2022/10/31 11:09:32;;;;;;;11.07;7.20;;;17.40;99.90;;;;;;5074493;28;20435;-63
2022/10/31 11:12:06;;;;;;;10.87;7.80;;;17.50;99.90;;;;;;5074696;28;20448;-63
2022/10/31 11:14:43;;;;;;;12.77;7.60;;;17.50;99.90;;;;;;5074033;28;20978;-64
2022/10/31 11:17:18;;;;;;;10.10;6.80;;;17.60;99.90;;;;;;5074331;28;20911;-64
2022/10/31 11:19:46;;;;;;;10.47;8.10;;;17.60;99.90;;;;;;5074722;28;20428;-64
2022/10/31 11:22:17;;;;;;;11.60;6.83;;;17.70;99.90;;;;;;5074550;28;20494;-64
2022/10/31 11:24:46;;;;;;;11.93;8.17;;;18.20;99.90;;;;;;5074506;28;20934;-64
2022/10/31 11:27:16;;;;;;;9.87;7.80;;;18.70;99.90;;;;;;5074489;28;20491;-63
2022/10/31 11:29:44;;;;;;;7.70;6.30;;;18.90;99.90;;;;;;5074224;28;20986;-64
2022/10/31 11:32:22;;;;;;;10.40;7.90;;;19.20;99.90;;;;;;5074334;28;20487;-63
2022/10/31 11:34:50;;;;;;;13.47;7.33;;;;;;;;;;5074288;28;20437;-63
2022/10/31 11:37:20;;;;;;;18.87;6.90;;;19.00;99.90;;;;;;5074192;28;20441;-64
2022/10/31 11:39:53;;;;;;;11.53;8.00;;;19.00;99.90;;;;;;5073963;28;20448;-64
2022/10/31 11:42:23;;;;;;;15.50;7.80;;;19.00;99.90;;;;;;5074015;28;20527;-64
2022/10/31 11:44:52;;;;;;;10.37;7.53;;;18.90;99.90;;;;;;5074335;28;20433;-63
2022/10/31 11:47:29;;;;;;;18.70;7.40;;;19.00;99.90;;;;;;5073634;28;20484;-64
2022/10/31 11:49:57;;;;;;;12.77;8.30;;;;;;;;;;5074192;28;20519;-63
2022/10/31 11:52:26;;;;;;;10.97;7.53;;;18.70;99.90;;;;;;5073622;28;20475;-64
2022/10/31 11:54:58;;;;;;;7.97;7.20;;;18.60;99.90;;;;;;5073737;28;20516;-64
2022/10/31 11:57:27;;;;;;;15.00;7.80;;;18.50;99.90;;;;;;5073770;28;20429;-63
2022/10/31 11:59:56;;;;;;;9.67;7.00;;;18.80;99.90;;;;;;5073752;28;20454;-64
2022/10/31 12:02:23;;;;;;;11.67;7.93;;;18.50;99.90;;;;;;5073921;28;20479;-63
2022/10/31 12:04:59;;;;;;;11.83;7.77;;;18.50;99.90;;;;;;5073467;28;20568;-63
2022/10/31 12:07:26;;;;;;;10.57;7.53;;;18.30;99.90;;;;;;5073666;28;20490;-64
2022/10/31 12:09:55;;;;;;;18.53;9.87;;;18.40;99.90;;;;;;5073692;28;20445;-64
2022/10/31 12:12:36;;;;;;;10.67;8.23;;;18.40;99.90;;;;;;5073373;28;20939;-64
2022/10/31 12:15:15;;;;;;;11.63;8.20;;;18.60;99.90;;;;;;5073569;28;20536;-64
2022/10/31 12:17:56;;;;;;;11.43;7.80;;;18.60;99.90;;;;;;5073396;28;20792;-64
2022/10/31 12:20:34;;;;;;;10.00;7.40;;;18.60;99.90;;;;;;5073713;28;20432;-64
2022/10/31 12:23:14;;;;;;;14.63;8.67;;;18.80;99.90;;;;;;5073502;28;20547;-64
2022/10/31 12:25:51;;;;;;;10.30;7.10;;;18.90;99.90;;;;;;5072550;28;20440;-64
2022/10/31 12:28:42;;;;;;;9.03;7.30;;;19.00;99.90;;;;;;5073193;28;20998;-64
2022/10/31 12:31:25;;;;;;;12.50;7.60;;;19.30;99.90;;;;;;5073481;28;20805;-64
2022/10/31 12:34:01;;;;;;;15.30;7.67;;;19.40;99.90;;;;;;5072912;28;20464;-64
2022/10/31 12:36:44;;;;;;;12.77;7.57;;;19.00;99.90;;;;;;5073057;28;20538;-65
2022/10/31 12:39:26;;;;;;;13.80;8.43;;;19.00;99.90;;;;;;5073205;28;20452;-63
2022/10/31 12:42:00;;;;;;;9.03;8.10;;;19.00;99.90;;;;;;5073293;28;20486;-63
2022/10/31 12:44:59;;;;;;;10.70;7.33;;;18.90;99.90;;;;;;5073548;28;20454;-64
2022/10/31 12:47:45;;;;;;;12.93;8.13;;;18.80;99.90;;;;;;5072717;28;20962;-64
2022/10/31 12:50:28;;;;;;;13.83;9.03;;;18.60;99.90;;;;;;5073219;28;20428;-64
2022/10/31 12:53:10;;;;;;;15.50;7.60;;;18.60;99.90;;;;;;5072350;28;20472;-64
2022/10/31 12:55:48;;;;;;;13.53;7.97;;;18.60;99.90;;;;;;5073135;28;20428;-64
2022/10/31 12:58:22;;;;;;;12.57;9.13;;;18.50;99.90;;;;;;5072777;28;20433;-64
2022/10/31 13:00:56;;;;;;;10.53;8.30;;;18.40;99.90;;;;;;5073425;28;20434;-64
2022/10/31 13:03:33;;;;;;;15.23;8.83;;;18.40;99.90;;;;;;5072764;28;20483;-64
2022/10/31 13:06:06;;;;;;;20.40;9.13;;;18.40;99.90;;;;;;5073100;28;20520;-64